createdAt,value
2019-02-26T00:02:56.282Z,13.27
2019-02-26T00:08:02.426Z,13.63
2019-02-26T00:13:07.178Z,13.07
2019-02-26T00:18:13.983Z,13.50
2019-02-26T00:23:19.818Z,13.87
2019-02-26T00:28:24.711Z,13.23
2019-02-26T00:33:29.414Z,12.73
2019-02-26T00:38:35.491Z,12.30
2019-02-26T00:43:40.558Z,12.87
2019-02-26T00:48:45.361Z,13.13
2019-02-26T00:53:52.763Z,13.70
2019-02-26T00:58:56.563Z,13.40
2019-02-26T01:04:01.588Z,13.53
2019-02-26T01:09:09.331Z,12.90
2019-02-26T01:14:15.785Z,13.45
2019-02-26T01:19:20.820Z,12.97
2019-02-26T01:24:26.386Z,13.63
2019-02-26T01:29:32.433Z,13.00
2019-02-26T01:34:38.359Z,13.10
2019-02-26T01:39:44.853Z,13.23
2019-02-26T01:44:50.010Z,13.17
2019-02-26T01:49:54.701Z,14.47
2019-02-26T01:55:00.748Z,13.73
2019-02-26T02:00:11.891Z,14.37
2019-02-26T02:05:19.052Z,13.63
2019-02-26T02:10:23.198Z,13.98
2019-02-26T02:15:27.909Z,14.23
2019-02-26T02:20:32.712Z,14.50
2019-02-26T02:25:40.294Z,13.90
2019-02-26T02:30:43.929Z,13.03
2019-02-26T02:35:48.640Z,13.63
2019-02-26T02:40:54.928Z,14.40
2019-02-26T02:46:01.370Z,14.50
2019-02-26T02:51:08.457Z,15.47
2019-02-26T02:56:15.141Z,14.73
2019-02-26T03:01:22.258Z,16.37
2019-02-26T03:06:29.528Z,16.27
2019-02-26T03:11:36.028Z,19.10
2019-02-26T03:16:39.959Z,19.83
2019-02-26T03:21:47.127Z,19.23
2019-02-26T03:26:51.257Z,20.03
2019-02-26T03:31:56.367Z,19.67
2019-02-26T03:37:03.829Z,18.87
2019-02-26T03:42:08.225Z,19.87
2019-02-26T03:47:16.285Z,20.80
2019-02-26T03:52:20.484Z,19.13
2019-02-26T03:57:25.291Z,20.33
2019-02-26T04:02:30.128Z,20.17
2019-02-26T04:07:36.090Z,19.63
2019-02-26T04:12:42.335Z,20.50
2019-02-26T04:17:47.817Z,18.93
2019-02-26T04:22:56.051Z,19.80
2019-02-26T04:28:07.986Z,19.47
2019-02-26T04:33:59.540Z,20.88
2019-02-26T04:39:36.820Z,19.83
2019-02-26T04:45:11.869Z,20.50
2019-02-26T04:50:16.565Z,21.03
2019-02-26T04:55:21.250Z,20.37
2019-02-26T05:00:27.734Z,20.93
2019-02-26T05:05:36.522Z,20.57
2019-02-26T05:10:38.908Z,21.10
2019-02-26T05:15:43.765Z,20.37
2019-02-26T05:20:48.631Z,20.10
2019-02-26T05:25:59.690Z,20.97
2019-02-26T05:31:03.651Z,21.00
2019-02-26T05:36:09.457Z,20.20
2019-02-26T05:41:14.371Z,19.20
2019-02-26T05:46:21.537Z,20.72
2019-02-26T05:51:27.477Z,20.67
2019-02-26T05:56:33.962Z,19.73
2019-02-26T06:01:38.445Z,21.30
2019-02-26T06:06:43.495Z,19.60
2019-02-26T06:11:50.067Z,20.23
2019-02-26T06:16:55.803Z,20.10
2019-02-26T06:22:00.752Z,20.10
2019-02-26T06:27:08.574Z,21.73
2019-02-26T06:32:15.678Z,20.68
2019-02-26T06:37:23.472Z,21.90
2019-02-26T06:42:30.667Z,20.77
2019-02-26T06:47:34.876Z,22.40
2019-02-26T06:52:40.428Z,20.57
2019-02-26T06:57:50.812Z,21.60
2019-02-26T07:02:53.628Z,21.33
2019-02-26T07:07:59.583Z,21.40
2019-02-26T07:13:06.969Z,20.87
2019-02-26T07:18:16.350Z,20.20
2019-02-26T07:23:17.594Z,21.07
2019-02-26T07:28:24.489Z,20.52
2019-02-26T07:33:29.794Z,23.27
2019-02-26T07:38:41.382Z,22.47
2019-02-26T07:43:44.098Z,22.87
2019-02-26T07:48:48.859Z,23.10
2019-02-26T07:53:56.509Z,23.43
2019-02-26T07:59:04.453Z,23.43
2019-02-26T08:04:09.330Z,22.90
2019-02-26T08:09:16.502Z,23.13
2019-02-26T08:14:23.113Z,25.50
2019-02-26T08:19:29.557Z,24.37
2019-02-26T08:24:33.945Z,24.33
2019-02-26T08:29:38.717Z,24.63
2019-02-26T08:34:43.417Z,25.97
2019-02-26T08:39:48.129Z,25.10
2019-02-26T08:44:54.241Z,25.47
2019-02-26T08:50:01.745Z,26.00
2019-02-26T08:55:07.269Z,26.00
2019-02-26T09:00:15.159Z,27.93
2019-02-26T09:05:19.915Z,27.42
2019-02-26T09:10:24.805Z,26.80
2019-02-26T09:15:31.267Z,26.33
2019-02-26T09:20:35.910Z,28.40
2019-02-26T09:25:40.592Z,26.87
2019-02-26T09:30:45.243Z,27.17
2019-02-26T09:35:52.009Z,26.27
2019-02-26T09:40:57.083Z,27.53
2019-02-26T09:46:03.864Z,27.30
2019-02-26T09:51:09.414Z,26.43
2019-02-26T09:56:14.751Z,27.30
2019-02-26T10:01:19.629Z,26.57
2019-02-26T10:06:24.435Z,26.70
2019-02-26T10:11:29.164Z,26.93
2019-02-26T10:16:33.880Z,27.30
2019-02-26T10:21:39.994Z,27.23
2019-02-26T10:26:45.344Z,26.60
2019-02-26T10:31:50.218Z,28.13
2019-02-26T10:36:55.205Z,26.37
2019-02-26T10:42:02.522Z,28.10
2019-02-26T10:47:08.298Z,27.50
2019-02-26T10:52:16.467Z,30.08
2019-02-26T10:57:19.252Z,28.37
2019-02-26T11:02:25.819Z,27.80
2019-02-26T11:07:31.904Z,26.57
2019-02-26T11:12:37.035Z,26.35
2019-02-26T11:17:43.083Z,28.37
2019-02-26T11:22:49.683Z,27.27
2019-02-26T11:27:54.577Z,28.03
2019-02-26T11:33:04.738Z,28.53
2019-02-26T11:38:05.933Z,27.97
2019-02-26T11:43:13.848Z,28.83
2019-02-26T11:48:17.721Z,28.80
2019-02-26T11:53:22.528Z,26.90
2019-02-26T11:58:27.211Z,29.30
2019-02-26T12:03:34.088Z,27.63
2019-02-26T12:08:41.839Z,26.93
2019-02-26T12:13:47.431Z,27.20
2019-02-26T12:18:52.165Z,26.97
2019-02-26T12:23:57.997Z,26.87
2019-02-26T12:29:04.475Z,27.00
2019-02-26T12:34:11.830Z,27.00
2019-02-26T12:39:18.574Z,27.17
2019-02-26T12:44:23.406Z,25.67
2019-02-26T12:49:29.404Z,28.23
2019-02-26T12:54:37.776Z,26.77
2019-02-26T12:59:41.680Z,29.10
2019-02-26T13:04:48.056Z,27.47
2019-02-26T13:09:56.100Z,26.97
2019-02-26T13:15:04.786Z,27.10
2019-02-26T13:20:11.325Z,26.20
2019-02-26T13:25:17.841Z,26.00
2019-02-26T13:30:23.306Z,26.37
2019-02-26T13:35:28.797Z,26.57
2019-02-26T13:40:38.436Z,26.02
2019-02-26T13:45:40.169Z,26.27
2019-02-26T13:50:44.977Z,26.95
2019-02-26T13:55:49.750Z,25.37
2019-02-26T14:00:54.657Z,24.63
2019-02-26T14:05:59.636Z,27.35
2019-02-26T14:11:04.805Z,26.57
2019-02-26T14:16:09.689Z,27.20
2019-02-26T14:21:14.552Z,29.13
2019-02-26T14:26:19.299Z,28.83
2019-02-26T14:31:24.308Z,27.10
2019-02-26T14:36:29.634Z,28.32
2019-02-26T14:41:34.500Z,28.13
2019-02-26T14:46:39.334Z,28.25
2019-02-26T14:51:44.434Z,27.53
2019-02-26T14:56:49.549Z,28.80
2019-02-26T15:01:54.298Z,26.00
2019-02-26T15:06:59.172Z,27.70
2019-02-26T15:12:05.077Z,26.50
2019-02-26T15:17:09.980Z,26.95
2019-02-26T15:22:14.951Z,25.93
2019-02-26T15:27:19.728Z,24.37
2019-02-26T15:32:24.709Z,25.53
2019-02-26T15:37:29.431Z,26.67
2019-02-26T15:42:34.311Z,27.13
2019-02-26T15:47:39.046Z,27.93
2019-02-26T15:52:43.854Z,27.27
2019-02-26T15:57:49.855Z,28.23
2019-02-26T16:02:59.063Z,26.50
2019-02-26T16:08:01.147Z,27.53
2019-02-26T16:13:05.895Z,27.37
2019-02-26T16:18:10.698Z,26.23
2019-02-26T16:23:15.397Z,25.82
2019-02-26T16:28:20.162Z,27.30
2019-02-26T16:33:24.851Z,26.73
2019-02-26T16:38:29.625Z,27.40
2019-02-26T16:43:34.369Z,27.55
2019-02-26T16:48:39.139Z,29.13
2019-02-26T16:53:43.865Z,27.87
2019-02-26T16:58:48.651Z,28.07
2019-02-26T17:03:53.634Z,27.10
2019-02-26T17:08:58.430Z,28.73
2019-02-26T17:14:03.378Z,28.07
2019-02-26T17:19:10.564Z,29.23
2019-02-26T17:24:15.691Z,31.90
2019-02-26T17:29:20.471Z,29.97
2019-02-26T17:34:25.163Z,28.73
2019-02-26T17:39:30.209Z,27.93
2019-02-26T17:44:34.936Z,28.23
2019-02-26T17:49:39.644Z,28.33
2019-02-26T17:54:44.439Z,27.60
2019-02-26T17:59:49.134Z,28.00
2019-02-26T18:04:53.846Z,29.50
2019-02-26T18:09:58.556Z,29.27
2019-02-26T18:15:03.273Z,29.33
2019-02-26T18:20:11.002Z,27.20
2019-02-26T18:25:16.369Z,28.32
2019-02-26T18:30:22.439Z,28.67
2019-02-26T18:35:27.161Z,29.87
2019-02-26T18:40:31.899Z,27.87
2019-02-26T18:45:36.865Z,28.40
2019-02-26T18:50:41.572Z,29.80
2019-02-26T18:55:46.329Z,30.00
2019-02-26T19:00:51.038Z,29.60
2019-02-26T19:05:55.740Z,31.33
2019-02-26T19:11:02.668Z,30.87
2019-02-26T19:16:07.452Z,32.07
2019-02-26T19:21:12.188Z,33.25
2019-02-26T19:26:17.000Z,32.40
2019-02-26T19:31:23.477Z,32.73
2019-02-26T19:36:28.249Z,33.40
2019-02-26T19:41:33.020Z,32.53
2019-02-26T19:46:37.748Z,33.40
2019-02-26T19:51:42.551Z,36.00
2019-02-26T19:56:47.552Z,36.30
2019-02-26T20:01:52.299Z,34.47
2019-02-26T20:06:58.683Z,35.07
2019-02-26T20:12:04.441Z,34.13
2019-02-26T20:17:14.745Z,34.97
2019-02-26T20:22:15.648Z,35.70
2019-02-26T20:27:21.913Z,35.07
2019-02-26T20:32:30.912Z,34.50
2019-02-26T20:37:33.561Z,34.30
2019-02-26T20:42:38.332Z,33.27
2019-02-26T20:47:43.339Z,32.83
2019-02-26T20:52:48.208Z,32.80
2019-02-26T20:57:52.972Z,31.33
2019-02-26T21:02:57.736Z,30.07
2019-02-26T21:08:02.457Z,32.07
2019-02-26T21:13:07.225Z,31.90
2019-02-26T21:18:11.996Z,32.73
2019-02-26T21:23:17.001Z,30.70
2019-02-26T21:28:21.732Z,32.73
2019-02-26T21:33:30.611Z,31.90
2019-02-26T21:38:32.821Z,33.57
2019-02-26T21:43:37.948Z,33.17
2019-02-26T21:48:42.615Z,30.20
2019-02-26T21:53:49.179Z,30.47
2019-02-26T21:58:59.388Z,31.03
2019-02-26T22:04:01.070Z,29.20
2019-02-26T22:09:06.790Z,30.67
2019-02-26T22:14:14.756Z,29.00
2019-02-26T22:19:20.438Z,30.47
2019-02-26T22:24:25.137Z,29.23
2019-02-26T22:29:30.040Z,29.93
2019-02-26T22:34:34.708Z,31.37
2019-02-26T22:39:39.695Z,30.47
2019-02-26T22:44:44.396Z,29.60
2019-02-26T22:49:49.066Z,30.07
2019-02-26T22:54:53.743Z,30.53
2019-02-26T22:59:58.686Z,30.03
2019-02-26T23:05:03.461Z,31.07
2019-02-26T23:10:08.626Z,30.30
2019-02-26T23:15:17.434Z,29.80
2019-02-26T23:20:22.196Z,31.52
2019-02-26T23:25:27.022Z,31.77
2019-02-26T23:30:31.929Z,30.20
2019-02-26T23:35:36.954Z,32.03
2019-02-26T23:40:41.623Z,31.23
2019-02-26T23:45:46.765Z,31.33
2019-02-26T23:50:51.541Z,30.57
2019-02-26T23:55:56.204Z,30.93
